sensor_id;sensor_type;location;lat;lon;timestamp;P1;durP1;ratioP1;P2;durP2;ratioP2
54412;SDS011;41533;51.390;0.074;2023-04-01T00:01:13;7.65;;;3.15;;
54412;SDS011;41533;51.390;0.074;2023-04-01T00:03:41;8.45;;;3.67;;
54412;SDS011;41533;51.390;0.074;2023-04-01T00:06:09;5.80;;;2.38;;
54412;SDS011;41533;51.390;0.074;2023-04-01T00:08:38;4.80;;;2.20;;
54412;SDS011;41533;51.390;0.074;2023-04-01T00:11:05;7.05;;;3.33;;
54412;SDS011;41533;51.390;0.074;2023-04-01T00:13:32;4.25;;;2.88;;
54412;SDS011;41533;51.390;0.074;2023-04-01T00:16:00;6.25;;;3.92;;
54412;SDS011;41533;51.390;0.074;2023-04-01T00:18:29;5.55;;;3.40;;
54412;SDS011;41533;51.390;0.074;2023-04-01T00:20:56;5.60;;;1.83;;
54412;SDS011;41533;51.390;0.074;2023-04-01T00:23:24;3.95;;;2.22;;
54412;SDS011;41533;51.390;0.074;2023-04-01T00:25:51;5.50;;;2.47;;
54412;SDS011;41533;51.390;0.074;2023-04-01T00:28:19;3.80;;;1.73;;
54412;SDS011;41533;51.390;0.074;2023-04-01T00:30:47;2.22;;;1.63;;
54412;SDS011;41533;51.390;0.074;2023-04-01T00:33:14;4.20;;;2.72;;
54412;SDS011;41533;51.390;0.074;2023-04-01T00:35:42;6.20;;;3.33;;
54412;SDS011;41533;51.390;0.074;2023-04-01T00:38:09;5.22;;;2.92;;
54412;SDS011;41533;51.390;0.074;2023-04-01T00:40:39;4.60;;;2.90;;
54412;SDS011;41533;51.390;0.074;2023-04-01T00:43:14;4.93;;;3.50;;
54412;SDS011;41533;51.390;0.074;2023-04-01T00:45:42;6.00;;;2.67;;
54412;SDS011;41533;51.390;0.074;2023-04-01T00:48:27;5.07;;;3.28;;
54412;SDS011;41533;51.390;0.074;2023-04-01T00:51:02;6.15;;;3.03;;
54412;SDS011;41533;51.390;0.074;2023-04-01T00:53:31;4.15;;;2.67;;
54412;SDS011;41533;51.390;0.074;2023-04-01T00:56:04;5.13;;;2.88;;
54412;SDS011;41533;51.390;0.074;2023-04-01T00:58:34;5.18;;;3.22;;
54412;SDS011;41533;51.390;0.074;2023-04-01T01:01:02;6.93;;;3.65;;
54412;SDS011;41533;51.390;0.074;2023-04-01T01:03:29;3.33;;;1.70;;
54412;SDS011;41533;51.390;0.074;2023-04-01T01:06:08;5.25;;;3.70;;
54412;SDS011;41533;51.390;0.074;2023-04-01T01:08:50;5.78;;;2.85;;
54412;SDS011;41533;51.390;0.074;2023-04-01T01:11:22;5.53;;;3.65;;
54412;SDS011;41533;51.390;0.074;2023-04-01T01:14:12;5.47;;;3.30;;
54412;SDS011;41533;51.390;0.074;2023-04-01T01:16:45;5.28;;;3.10;;
54412;SDS011;41533;51.390;0.074;2023-04-01T01:22:28;5.30;;;3.13;;
54412;SDS011;41533;51.390;0.074;2023-04-01T01:37:22;4.70;;;1.70;;
54412;SDS011;41533;51.390;0.074;2023-04-01T01:39:53;4.07;;;2.10;;
54412;SDS011;41533;51.390;0.074;2023-04-01T01:42:21;1.05;;;0.95;;
54412;SDS011;41533;51.390;0.074;2023-04-01T01:44:50;2.78;;;1.73;;
54412;SDS011;41533;51.390;0.074;2023-04-01T01:47:18;1.10;;;1.00;;
54412;SDS011;41533;51.390;0.074;2023-04-01T01:49:46;1.90;;;1.42;;
54412;SDS011;41533;51.390;0.074;2023-04-01T01:52:16;2.95;;;1.15;;
54412;SDS011;41533;51.390;0.074;2023-04-01T01:54:51;1.33;;;0.98;;
54412;SDS011;41533;51.390;0.074;2023-04-01T01:57:22;1.73;;;1.20;;
54412;SDS011;41533;51.390;0.074;2023-04-01T01:59:52;0.75;;;0.75;;
54412;SDS011;41533;51.390;0.074;2023-04-01T02:02:25;3.00;;;1.23;;
54412;SDS011;41533;51.390;0.074;2023-04-01T02:04:53;1.85;;;1.25;;
54412;SDS011;41533;51.390;0.074;2023-04-01T02:07:28;1.33;;;1.20;;
54412;SDS011;41533;51.390;0.074;2023-04-01T02:09:58;1.20;;;1.00;;
54412;SDS011;41533;51.390;0.074;2023-04-01T02:12:27;1.52;;;1.02;;
54412;SDS011;41533;51.390;0.074;2023-04-01T02:15:00;1.48;;;1.23;;
54412;SDS011;41533;51.390;0.074;2023-04-01T02:17:29;1.27;;;1.10;;
54412;SDS011;41533;51.390;0.074;2023-04-01T02:19:57;2.95;;;1.15;;
54412;SDS011;41533;51.390;0.074;2023-04-01T02:22:28;1.67;;;0.90;;
54412;SDS011;41533;51.390;0.074;2023-04-01T02:24:59;1.48;;;0.70;;
54412;SDS011;41533;51.390;0.074;2023-04-01T02:27:28;1.23;;;0.98;;
54412;SDS011;41533;51.390;0.074;2023-04-01T02:29:55;0.75;;;0.60;;
54412;SDS011;41533;51.390;0.074;2023-04-01T02:32:23;1.67;;;0.98;;
54412;SDS011;41533;51.390;0.074;2023-04-01T02:34:51;0.75;;;0.75;;
54412;SDS011;41533;51.390;0.074;2023-04-01T02:37:18;4.15;;;1.15;;
54412;SDS011;41533;51.390;0.074;2023-04-01T02:39:46;2.65;;;1.05;;
54412;SDS011;41533;51.390;0.074;2023-04-01T02:42:13;2.20;;;0.80;;
54412;SDS011;41533;51.390;0.074;2023-04-01T02:44:41;0.70;;;0.70;;
54412;SDS011;41533;51.390;0.074;2023-04-01T02:47:08;1.42;;;1.20;;
54412;SDS011;41533;51.390;0.074;2023-04-01T02:49:35;1.38;;;1.08;;
54412;SDS011;41533;51.390;0.074;2023-04-01T02:52:03;1.45;;;0.95;;
54412;SDS011;41533;51.390;0.074;2023-04-01T02:54:30;1.83;;;0.57;;
54412;SDS011;41533;51.390;0.074;2023-04-01T02:56:57;1.40;;;1.20;;
54412;SDS011;41533;51.390;0.074;2023-04-01T02:59:25;1.25;;;0.85;;
54412;SDS011;41533;51.390;0.074;2023-04-01T03:01:52;1.38;;;0.70;;
54412;SDS011;41533;51.390;0.074;2023-04-01T03:04:19;1.05;;;0.80;;
54412;SDS011;41533;51.390;0.074;2023-04-01T03:06:47;1.20;;;0.95;;
54412;SDS011;41533;51.390;0.074;2023-04-01T03:09:14;0.73;;;0.60;;
54412;SDS011;41533;51.390;0.074;2023-04-01T03:11:41;0.98;;;0.52;;
54412;SDS011;41533;51.390;0.074;2023-04-01T03:14:09;0.50;;;0.47;;
54412;SDS011;41533;51.390;0.074;2023-04-01T03:16:36;0.70;;;0.57;;
54412;SDS011;41533;51.390;0.074;2023-04-01T03:19:03;0.80;;;0.80;;
54412;SDS011;41533;51.390;0.074;2023-04-01T03:21:30;0.60;;;0.60;;
54412;SDS011;41533;51.390;0.074;2023-04-01T03:23:58;0.68;;;0.65;;
54412;SDS011;41533;51.390;0.074;2023-04-01T03:26:25;1.77;;;0.70;;
54412;SDS011;41533;51.390;0.074;2023-04-01T03:28:55;2.90;;;0.90;;
54412;SDS011;41533;51.390;0.074;2023-04-01T03:31:22;0.65;;;0.63;;
54412;SDS011;41533;51.390;0.074;2023-04-01T03:33:54;0.73;;;0.63;;
54412;SDS011;41533;51.390;0.074;2023-04-01T03:36:22;0.60;;;0.60;;
54412;SDS011;41533;51.390;0.074;2023-04-01T03:38:49;0.70;;;0.70;;
54412;SDS011;41533;51.390;0.074;2023-04-01T03:41:23;1.00;;;0.90;;
54412;SDS011;41533;51.390;0.074;2023-04-01T03:43:50;3.45;;;0.60;;
54412;SDS011;41533;51.390;0.074;2023-04-01T03:46:18;1.27;;;0.82;;
54412;SDS011;41533;51.390;0.074;2023-04-01T03:48:46;0.40;;;0.40;;
54412;SDS011;41533;51.390;0.074;2023-04-01T03:51:13;0.82;;;0.75;;
54412;SDS011;41533;51.390;0.074;2023-04-01T03:53:40;2.05;;;0.50;;
54412;SDS011;41533;51.390;0.074;2023-04-01T03:56:08;0.85;;;0.60;;
54412;SDS011;41533;51.390;0.074;2023-04-01T03:58:36;1.40;;;0.80;;
54412;SDS011;41533;51.390;0.074;2023-04-01T04:01:23;0.55;;;0.52;;
54412;SDS011;41533;51.390;0.074;2023-04-01T04:03:54;0.75;;;0.65;;
54412;SDS011;41533;51.390;0.074;2023-04-01T04:06:22;0.50;;;0.50;;
54412;SDS011;41533;51.390;0.074;2023-04-01T04:08:50;0.90;;;0.90;;
54412;SDS011;41533;51.390;0.074;2023-04-01T04:11:17;0.50;;;0.50;;
54412;SDS011;41533;51.390;0.074;2023-04-01T04:13:45;0.60;;;0.60;;
54412;SDS011;41533;51.390;0.074;2023-04-01T04:16:12;0.50;;;0.50;;
54412;SDS011;41533;51.390;0.074;2023-04-01T04:18:45;0.50;;;0.50;;
54412;SDS011;41533;51.390;0.074;2023-04-01T04:21:13;0.57;;;0.57;;
54412;SDS011;41533;51.390;0.074;2023-04-01T04:23:42;1.95;;;1.05;;
54412;SDS011;41533;51.390;0.074;2023-04-01T04:26:11;0.80;;;0.50;;
54412;SDS011;41533;51.390;0.074;2023-04-01T04:28:39;0.65;;;0.65;;
54412;SDS011;41533;51.390;0.074;2023-04-01T04:31:06;0.60;;;0.60;;
54412;SDS011;41533;51.390;0.074;2023-04-01T04:33:35;0.70;;;0.63;;
54412;SDS011;41533;51.390;0.074;2023-04-01T04:36:03;0.50;;;0.50;;
54412;SDS011;41533;51.390;0.074;2023-04-01T04:38:31;0.52;;;0.40;;
54412;SDS011;41533;51.390;0.074;2023-04-01T04:40:58;1.02;;;0.70;;
54412;SDS011;41533;51.390;0.074;2023-04-01T04:43:26;0.82;;;0.77;;
54412;SDS011;41533;51.390;0.074;2023-04-01T04:45:53;0.40;;;0.40;;
54412;SDS011;41533;51.390;0.074;2023-04-01T04:48:21;1.20;;;0.65;;
54412;SDS011;41533;51.390;0.074;2023-04-01T04:50:49;1.13;;;0.55;;
54412;SDS011;41533;51.390;0.074;2023-04-01T04:53:18;0.68;;;0.55;;
54412;SDS011;41533;51.390;0.074;2023-04-01T04:55:47;0.80;;;0.80;;
54412;SDS011;41533;51.390;0.074;2023-04-01T04:58:29;0.53;;;0.50;;
54412;SDS011;41533;51.390;0.074;2023-04-01T05:00:56;0.55;;;0.55;;
54412;SDS011;41533;51.390;0.074;2023-04-01T05:03:28;0.88;;;0.65;;
54412;SDS011;41533;51.390;0.074;2023-04-01T05:05:56;0.40;;;0.40;;
54412;SDS011;41533;51.390;0.074;2023-04-01T05:08:23;0.50;;;0.50;;
54412;SDS011;41533;51.390;0.074;2023-04-01T05:10:52;0.57;;;0.57;;
54412;SDS011;41533;51.390;0.074;2023-04-01T05:13:20;3.70;;;0.60;;
54412;SDS011;41533;51.390;0.074;2023-04-01T05:15:47;0.47;;;0.47;;
54412;SDS011;41533;51.390;0.074;2023-04-01T05:18:16;2.13;;;0.40;;
54412;SDS011;41533;51.390;0.074;2023-04-01T05:20:50;2.65;;;0.80;;
54412;SDS011;41533;51.390;0.074;2023-04-01T05:23:19;2.97;;;0.80;;
54412;SDS011;41533;51.390;0.074;2023-04-01T05:25:48;0.90;;;0.52;;
54412;SDS011;41533;51.390;0.074;2023-04-01T05:28:16;0.52;;;0.50;;
54412;SDS011;41533;51.390;0.074;2023-04-01T05:30:45;0.50;;;0.50;;
54412;SDS011;41533;51.390;0.074;2023-04-01T05:33:21;0.75;;;0.75;;
54412;SDS011;41533;51.390;0.074;2023-04-01T05:35:48;0.70;;;0.40;;
54412;SDS011;41533;51.390;0.074;2023-04-01T05:38:15;0.98;;;0.63;;
54412;SDS011;41533;51.390;0.074;2023-04-01T05:40:42;0.82;;;0.63;;
54412;SDS011;41533;51.390;0.074;2023-04-01T05:43:10;0.50;;;0.50;;
54412;SDS011;41533;51.390;0.074;2023-04-01T05:45:37;2.60;;;0.68;;
54412;SDS011;41533;51.390;0.074;2023-04-01T05:48:13;0.40;;;0.40;;
54412;SDS011;41533;51.390;0.074;2023-04-01T05:50:41;0.63;;;0.63;;
54412;SDS011;41533;51.390;0.074;2023-04-01T05:53:10;0.82;;;0.60;;
54412;SDS011;41533;51.390;0.074;2023-04-01T05:55:41;2.92;;;0.55;;
54412;SDS011;41533;51.390;0.074;2023-04-01T05:58:08;0.52;;;0.52;;
54412;SDS011;41533;51.390;0.074;2023-04-01T06:00:38;0.40;;;0.40;;
54412;SDS011;41533;51.390;0.074;2023-04-01T06:03:05;0.70;;;0.70;;
54412;SDS011;41533;51.390;0.074;2023-04-01T06:05:42;1.15;;;0.60;;
54412;SDS011;41533;51.390;0.074;2023-04-01T06:08:14;0.40;;;0.40;;
54412;SDS011;41533;51.390;0.074;2023-04-01T06:15:49;2.28;;;0.50;;
54412;SDS011;41533;51.390;0.074;2023-04-01T06:18:28;2.33;;;0.90;;
54412;SDS011;41533;51.390;0.074;2023-04-01T06:21:05;0.93;;;0.70;;
54412;SDS011;41533;51.390;0.074;2023-04-01T06:40:18;0.70;;;0.68;;
54412;SDS011;41533;51.390;0.074;2023-04-01T06:42:56;0.52;;;0.52;;
54412;SDS011;41533;51.390;0.074;2023-04-01T06:45:58;1.30;;;0.93;;
54412;SDS011;41533;51.390;0.074;2023-04-01T06:51:48;2.28;;;1.15;;
54412;SDS011;41533;51.390;0.074;2023-04-01T06:54:39;0.93;;;0.50;;
54412;SDS011;41533;51.390;0.074;2023-04-01T06:57:19;2.67;;;1.00;;
54412;SDS011;41533;51.390;0.074;2023-04-01T06:59:47;0.70;;;0.70;;
54412;SDS011;41533;51.390;0.074;2023-04-01T07:02:24;0.88;;;0.60;;
54412;SDS011;41533;51.390;0.074;2023-04-01T07:04:53;1.38;;;0.55;;
54412;SDS011;41533;51.390;0.074;2023-04-01T07:07:32;0.82;;;0.80;;
54412;SDS011;41533;51.390;0.074;2023-04-01T07:10:05;0.50;;;0.50;;
54412;SDS011;41533;51.390;0.074;2023-04-01T07:12:56;1.10;;;0.98;;
54412;SDS011;41533;51.390;0.074;2023-04-01T07:15:54;2.13;;;0.88;;
54412;SDS011;41533;51.390;0.074;2023-04-01T07:18:30;2.05;;;0.73;;
54412;SDS011;41533;51.390;0.074;2023-04-01T07:20:58;0.80;;;0.70;;
54412;SDS011;41533;51.390;0.074;2023-04-01T07:23:28;1.05;;;0.95;;
54412;SDS011;41533;51.390;0.074;2023-04-01T07:26:14;2.05;;;1.27;;
54412;SDS011;41533;51.390;0.074;2023-04-01T07:29:05;1.92;;;1.20;;
54412;SDS011;41533;51.390;0.074;2023-04-01T07:36:48;1.17;;;0.90;;
54412;SDS011;41533;51.390;0.074;2023-04-01T07:50:38;1.90;;;1.20;;
54412;SDS011;41533;51.390;0.074;2023-04-01T07:53:13;3.17;;;1.13;;
54412;SDS011;41533;51.390;0.074;2023-04-01T07:55:50;1.17;;;1.05;;
54412;SDS011;41533;51.390;0.074;2023-04-01T07:58:22;1.73;;;1.10;;
54412;SDS011;41533;51.390;0.074;2023-04-01T08:00:57;2.65;;;1.40;;
54412;SDS011;41533;51.390;0.074;2023-04-01T08:09:09;0.90;;;0.75;;
54412;SDS011;41533;51.390;0.074;2023-04-01T08:15:21;1.65;;;0.95;;
54412;SDS011;41533;51.390;0.074;2023-04-01T08:18:03;2.40;;;1.15;;
54412;SDS011;41533;51.390;0.074;2023-04-01T08:20:37;3.42;;;1.55;;
54412;SDS011;41533;51.390;0.074;2023-04-01T08:23:16;5.25;;;2.00;;
54412;SDS011;41533;51.390;0.074;2023-04-01T08:25:52;2.78;;;1.17;;
54412;SDS011;41533;51.390;0.074;2023-04-01T08:28:35;1.92;;;1.75;;
54412;SDS011;41533;51.390;0.074;2023-04-01T08:31:06;4.70;;;1.70;;
54412;SDS011;41533;51.390;0.074;2023-04-01T08:33:36;3.38;;;1.67;;
54412;SDS011;41533;51.390;0.074;2023-04-01T08:36:24;4.30;;;1.75;;
54412;SDS011;41533;51.390;0.074;2023-04-01T08:39:08;2.35;;;1.60;;
54412;SDS011;41533;51.390;0.074;2023-04-01T08:52:34;2.63;;;2.00;;
54412;SDS011;41533;51.390;0.074;2023-04-01T08:55:18;1.42;;;1.10;;
54412;SDS011;41533;51.390;0.074;2023-04-01T08:58:04;2.83;;;1.63;;
54412;SDS011;41533;51.390;0.074;2023-04-01T09:00:50;2.80;;;1.40;;
54412;SDS011;41533;51.390;0.074;2023-04-01T09:08:33;2.13;;;1.60;;
54412;SDS011;41533;51.390;0.074;2023-04-01T09:11:13;2.83;;;2.00;;
54412;SDS011;41533;51.390;0.074;2023-04-01T09:26:44;1.52;;;1.20;;
54412;SDS011;41533;51.390;0.074;2023-04-01T09:31:53;2.88;;;1.63;;
54412;SDS011;41533;51.390;0.074;2023-04-01T09:50:37;2.75;;;1.23;;
54412;SDS011;41533;51.390;0.074;2023-04-01T09:53:12;2.60;;;1.75;;
54412;SDS011;41533;51.390;0.074;2023-04-01T09:58:23;4.10;;;1.88;;
54412;SDS011;41533;51.390;0.074;2023-04-01T10:07:03;2.47;;;1.27;;
54412;SDS011;41533;51.390;0.074;2023-04-01T10:36:47;1.90;;;1.27;;
54412;SDS011;41533;51.390;0.074;2023-04-01T11:03:24;1.20;;;1.10;;
54412;SDS011;41533;51.390;0.074;2023-04-01T11:30:17;2.05;;;1.42;;
54412;SDS011;41533;51.390;0.074;2023-04-01T11:38:00;4.63;;;2.22;;
54412;SDS011;41533;51.390;0.074;2023-04-01T11:41:30;1.67;;;1.30;;
54412;SDS011;41533;51.390;0.074;2023-04-01T11:44:09;1.58;;;1.27;;
54412;SDS011;41533;51.390;0.074;2023-04-01T11:53:12;5.88;;;2.67;;
54412;SDS011;41533;51.390;0.074;2023-04-01T11:55:25;3.35;;;1.70;;
54412;SDS011;41533;51.390;0.074;2023-04-01T11:57:59;2.45;;;1.67;;
54412;SDS011;41533;51.390;0.074;2023-04-01T12:08:45;4.80;;;2.00;;
54412;SDS011;41533;51.390;0.074;2023-04-01T12:11:29;2.88;;;1.90;;
54412;SDS011;41533;51.390;0.074;2023-04-01T12:14:02;3.42;;;1.88;;
54412;SDS011;41533;51.390;0.074;2023-04-01T12:21:36;4.85;;;2.30;;
54412;SDS011;41533;51.390;0.074;2023-04-01T12:41:13;3.58;;;1.48;;
54412;SDS011;41533;51.390;0.074;2023-04-01T12:45:45;3.72;;;1.77;;
54412;SDS011;41533;51.390;0.074;2023-04-01T12:56:22;6.35;;;1.52;;
54412;SDS011;41533;51.390;0.074;2023-04-01T13:01:53;7.20;;;2.08;;
54412;SDS011;41533;51.390;0.074;2023-04-01T13:09:53;5.80;;;1.95;;
54412;SDS011;41533;51.390;0.074;2023-04-01T13:12:40;3.45;;;1.70;;
54412;SDS011;41533;51.390;0.074;2023-04-01T13:15:18;2.47;;;1.35;;
54412;SDS011;41533;51.390;0.074;2023-04-01T13:25:43;2.47;;;1.30;;
54412;SDS011;41533;51.390;0.074;2023-04-01T13:28:16;3.47;;;1.75;;
54412;SDS011;41533;51.390;0.074;2023-04-01T13:30:52;2.30;;;1.88;;
54412;SDS011;41533;51.390;0.074;2023-04-01T13:36:06;3.78;;;1.63;;
54412;SDS011;41533;51.390;0.074;2023-04-01T13:38:43;1.75;;;1.15;;
54412;SDS011;41533;51.390;0.074;2023-04-01T13:43:45;2.50;;;1.50;;
54412;SDS011;41533;51.390;0.074;2023-04-01T13:51:20;4.68;;;1.35;;
54412;SDS011;41533;51.390;0.074;2023-04-01T13:53:56;3.08;;;1.10;;
54412;SDS011;41533;51.390;0.074;2023-04-01T14:01:57;2.08;;;1.15;;
54412;SDS011;41533;51.390;0.074;2023-04-01T14:22:46;1.75;;;0.85;;
54412;SDS011;41533;51.390;0.074;2023-04-01T14:48:57;2.38;;;1.00;;
54412;SDS011;41533;51.390;0.074;2023-04-01T14:54:08;1.58;;;0.85;;
54412;SDS011;41533;51.390;0.074;2023-04-01T14:59:09;3.40;;;0.98;;
54412;SDS011;41533;51.390;0.074;2023-04-01T15:25:25;3.85;;;1.20;;
54412;SDS011;41533;51.390;0.074;2023-04-01T15:38:44;2.58;;;1.10;;
54412;SDS011;41533;51.390;0.074;2023-04-01T15:41:16;1.88;;;1.40;;
54412;SDS011;41533;51.390;0.074;2023-04-01T15:43:46;2.42;;;1.20;;
54412;SDS011;41533;51.390;0.074;2023-04-01T15:46:23;5.47;;;2.38;;
54412;SDS011;41533;51.390;0.074;2023-04-01T16:09:53;5.32;;;2.13;;
54412;SDS011;41533;51.390;0.074;2023-04-01T16:12:36;2.90;;;1.60;;
54412;SDS011;41533;51.390;0.074;2023-04-01T16:15:25;1.85;;;1.35;;
54412;SDS011;41533;51.390;0.074;2023-04-01T16:23:16;2.63;;;1.73;;
54412;SDS011;41533;51.390;0.074;2023-04-01T16:25:54;2.88;;;1.50;;
54412;SDS011;41533;51.390;0.074;2023-04-01T16:28:32;5.03;;;1.85;;
54412;SDS011;41533;51.390;0.074;2023-04-01T16:31:23;4.40;;;1.52;;
54412;SDS011;41533;51.390;0.074;2023-04-01T16:33:58;5.40;;;2.20;;
54412;SDS011;41533;51.390;0.074;2023-04-01T16:36:30;3.47;;;1.90;;
54412;SDS011;41533;51.390;0.074;2023-04-01T16:39:07;7.78;;;2.05;;
54412;SDS011;41533;51.390;0.074;2023-04-01T16:41:38;4.07;;;2.60;;
54412;SDS011;41533;51.390;0.074;2023-04-01T16:44:19;3.90;;;2.22;;
54412;SDS011;41533;51.390;0.074;2023-04-01T16:46:51;4.18;;;2.00;;
54412;SDS011;41533;51.390;0.074;2023-04-01T17:04:44;3.47;;;1.85;;
54412;SDS011;41533;51.390;0.074;2023-04-01T17:07:35;4.53;;;1.85;;
54412;SDS011;41533;51.390;0.074;2023-04-01T17:15:17;3.85;;;1.95;;
54412;SDS011;41533;51.390;0.074;2023-04-01T17:17:51;4.93;;;2.25;;
54412;SDS011;41533;51.390;0.074;2023-04-01T17:20:29;5.00;;;2.20;;
54412;SDS011;41533;51.390;0.074;2023-04-01T17:25:39;4.50;;;1.90;;
54412;SDS011;41533;51.390;0.074;2023-04-01T17:28:32;2.28;;;2.08;;
54412;SDS011;41533;51.390;0.074;2023-04-01T17:31:09;6.07;;;1.93;;
54412;SDS011;41533;51.390;0.074;2023-04-01T17:41:29;8.10;;;1.95;;
54412;SDS011;41533;51.390;0.074;2023-04-01T17:51:37;3.08;;;1.67;;
54412;SDS011;41533;51.390;0.074;2023-04-01T17:59:25;4.47;;;1.67;;
54412;SDS011;41533;51.390;0.074;2023-04-01T18:02:06;3.00;;;2.10;;
54412;SDS011;41533;51.390;0.074;2023-04-01T18:07:24;2.92;;;2.08;;
54412;SDS011;41533;51.390;0.074;2023-04-01T18:10:10;2.42;;;1.58;;
54412;SDS011;41533;51.390;0.074;2023-04-01T18:13:02;3.20;;;1.70;;
54412;SDS011;41533;51.390;0.074;2023-04-01T18:28:11;4.32;;;1.77;;
54412;SDS011;41533;51.390;0.074;2023-04-01T18:30:39;3.50;;;1.80;;
54412;SDS011;41533;51.390;0.074;2023-04-01T18:33:09;2.30;;;1.58;;
54412;SDS011;41533;51.390;0.074;2023-04-01T18:38:31;3.40;;;1.75;;
54412;SDS011;41533;51.390;0.074;2023-04-01T18:46:46;2.53;;;1.42;;
54412;SDS011;41533;51.390;0.074;2023-04-01T18:49:21;1.50;;;1.35;;
54412;SDS011;41533;51.390;0.074;2023-04-01T18:51:51;2.85;;;1.63;;
54412;SDS011;41533;51.390;0.074;2023-04-01T18:56:59;3.75;;;1.55;;
54412;SDS011;41533;51.390;0.074;2023-04-01T19:02:14;2.38;;;1.50;;
54412;SDS011;41533;51.390;0.074;2023-04-01T19:04:47;1.88;;;1.20;;
54412;SDS011;41533;51.390;0.074;2023-04-01T19:12:30;2.95;;;1.40;;
54412;SDS011;41533;51.390;0.074;2023-04-01T19:27:57;2.92;;;1.20;;
54412;SDS011;41533;51.390;0.074;2023-04-01T19:35:44;1.38;;;0.88;;
54412;SDS011;41533;51.390;0.074;2023-04-01T19:38:24;3.15;;;1.23;;
54412;SDS011;41533;51.390;0.074;2023-04-01T19:43:33;2.05;;;0.93;;
54412;SDS011;41533;51.390;0.074;2023-04-01T19:57:24;1.85;;;0.95;;
54412;SDS011;41533;51.390;0.074;2023-04-01T20:04:36;2.30;;;0.90;;
54412;SDS011;41533;51.390;0.074;2023-04-01T20:15:02;1.67;;;0.90;;
54412;SDS011;41533;51.390;0.074;2023-04-01T20:17:32;2.10;;;0.90;;
54412;SDS011;41533;51.390;0.074;2023-04-01T20:20:01;2.15;;;0.90;;
54412;SDS011;41533;51.390;0.074;2023-04-01T20:22:37;1.40;;;0.70;;
54412;SDS011;41533;51.390;0.074;2023-04-01T20:25:10;3.45;;;0.88;;
54412;SDS011;41533;51.390;0.074;2023-04-01T20:28:19;1.75;;;0.90;;
54412;SDS011;41533;51.390;0.074;2023-04-01T20:36:19;2.30;;;0.73;;
54412;SDS011;41533;51.390;0.074;2023-04-01T20:41:12;2.17;;;1.58;;
54412;SDS011;41533;51.390;0.074;2023-04-01T20:51:31;5.22;;;1.33;;
54412;SDS011;41533;51.390;0.074;2023-04-01T20:56:30;2.42;;;0.95;;
54412;SDS011;41533;51.390;0.074;2023-04-01T20:59:21;2.50;;;1.15;;
54412;SDS011;41533;51.390;0.074;2023-04-01T21:02:40;2.28;;;0.80;;
54412;SDS011;41533;51.390;0.074;2023-04-01T21:04:47;2.25;;;0.88;;
54412;SDS011;41533;51.390;0.074;2023-04-01T21:15:19;1.08;;;0.70;;
54412;SDS011;41533;51.390;0.074;2023-04-01T21:20:37;1.27;;;0.85;;
54412;SDS011;41533;51.390;0.074;2023-04-01T21:23:34;1.13;;;0.80;;
54412;SDS011;41533;51.390;0.074;2023-04-01T21:26:05;1.05;;;0.60;;
54412;SDS011;41533;51.390;0.074;2023-04-01T21:28:41;1.50;;;0.82;;
54412;SDS011;41533;51.390;0.074;2023-04-01T21:31:18;3.47;;;0.63;;
54412;SDS011;41533;51.390;0.074;2023-04-01T21:37:21;0.77;;;0.57;;
54412;SDS011;41533;51.390;0.074;2023-04-01T21:39:16;0.60;;;0.60;;
54412;SDS011;41533;51.390;0.074;2023-04-01T21:47:17;3.22;;;0.68;;
54412;SDS011;41533;51.390;0.074;2023-04-01T21:52:24;0.80;;;0.70;;
54412;SDS011;41533;51.390;0.074;2023-04-01T22:00:23;0.75;;;0.60;;
54412;SDS011;41533;51.390;0.074;2023-04-01T22:08:14;0.75;;;0.68;;
54412;SDS011;41533;51.390;0.074;2023-04-01T22:10:45;0.73;;;0.60;;
54412;SDS011;41533;51.390;0.074;2023-04-01T22:18:37;1.52;;;0.47;;
54412;SDS011;41533;51.390;0.074;2023-04-01T22:21:09;1.83;;;0.65;;
54412;SDS011;41533;51.390;0.074;2023-04-01T22:23:39;0.60;;;0.60;;
54412;SDS011;41533;51.390;0.074;2023-04-01T22:26:11;2.03;;;0.50;;
54412;SDS011;41533;51.390;0.074;2023-04-01T22:31:14;0.40;;;0.40;;
54412;SDS011;41533;51.390;0.074;2023-04-01T22:33:55;0.43;;;0.43;;
54412;SDS011;41533;51.390;0.074;2023-04-01T22:39:30;1.38;;;0.70;;
54412;SDS011;41533;51.390;0.074;2023-04-01T22:49:41;4.80;;;0.68;;
54412;SDS011;41533;51.390;0.074;2023-04-01T22:59:43;0.40;;;0.40;;
54412;SDS011;41533;51.390;0.074;2023-04-01T23:04:40;2.08;;;0.75;;
54412;SDS011;41533;51.390;0.074;2023-04-01T23:09:47;2.70;;;0.70;;
54412;SDS011;41533;51.390;0.074;2023-04-01T23:12:15;0.70;;;0.60;;
54412;SDS011;41533;51.390;0.074;2023-04-01T23:14:54;1.05;;;0.60;;
54412;SDS011;41533;51.390;0.074;2023-04-01T23:36:36;1.08;;;0.50;;
54412;SDS011;41533;51.390;0.074;2023-04-01T23:38:34;2.00;;;0.68;;
54412;SDS011;41533;51.390;0.074;2023-04-01T23:41:03;1.00;;;0.57;;
54412;SDS011;41533;51.390;0.074;2023-04-01T23:43:32;1.02;;;0.45;;
54412;SDS011;41533;51.390;0.074;2023-04-01T23:46:01;0.30;;;0.30;;
54412;SDS011;41533;51.390;0.074;2023-04-01T23:48:31;0.52;;;0.50;;
54412;SDS011;41533;51.390;0.074;2023-04-01T23:50:59;0.40;;;0.40;;
54412;SDS011;41533;51.390;0.074;2023-04-01T23:53:32;1.15;;;0.70;;
54412;SDS011;41533;51.390;0.074;2023-04-01T23:58:38;1.02;;;0.50;;
